Terminal Aerodrome Forecast
Issued by NWS

Home | Current Version | Previous Version | Text Only | Print | Product List | Glossary On
Versions: 1 2 3 4 5 6 7 8 9 10 11 12 13 14 15 16 17 18 19 20 21 22 23 24 25
000
FTUS44 KLZK 181431 AAA
TAFBPK
TAF AMD
KBPK 181431Z 1815/1912 12004KT 6SM BR SCT002 OVC010
      TEMPO 1815/1818 1SM BR OVC002
     FM190100 12003KT 4SM -DZ BR OVC006
     FM190600 VRB02KT 1SM -RA BR BKN001=

USA.gov is the U.S. government's official web portal to all federal, state and local government web resources and services.